Time;durP1;ratioP1;P1;durP2;ratioP2;P2;SDS_P1;SDS_P2;PMS_P1;PMS_P2;Temp;Humidity;BMP_temperature;BMP_pressure;BME280_temperature;BME280_humidity;BME280_pressure;Samples;Min_cycle;Max_cycle;Signal;HPM_P1;HPM_P2
2022/06/12 00:00:50;;;;;;;3.83;1.63;;;11.90;99.90;;;;;;5077238;28;20051;-81
2022/06/12 00:03:18;;;;;;;6.80;2.03;;;11.80;99.90;;;;;;5064541;28;20044;-81
2022/06/12 00:05:48;;;;;;;4.70;1.92;;;11.80;99.90;;;;;;5081340;28;20044;-81
2022/06/12 00:08:14;;;;;;;7.22;2.53;;;11.70;99.90;;;;;;5080931;28;20068;-81
2022/06/12 00:10:43;;;;;;;4.65;1.88;;;11.70;99.90;;;;;;5082884;28;20036;-81
2022/06/12 00:13:11;;;;;;;10.73;2.28;;;11.70;99.90;;;;;;5062328;28;20036;-81
2022/06/12 00:15:37;;;;;;;8.25;2.63;;;11.70;99.90;;;;;;5078322;28;20100;-81
2022/06/12 00:18:03;;;;;;;7.68;2.20;;;11.70;99.90;;;;;;5058136;28;20660;-82
2022/06/12 00:20:29;;;;;;;8.98;2.75;;;11.70;99.90;;;;;;5057375;28;20414;-84
2022/06/12 00:22:56;;;;;;;6.45;1.90;;;11.70;99.90;;;;;;5054560;28;20048;-84
2022/06/12 00:25:25;;;;;;;6.82;2.40;;;11.70;99.90;;;;;;5064868;28;20029;-83
2022/06/12 00:27:51;;;;;;;7.40;2.70;;;11.70;99.90;;;;;;5073922;28;20048;-84
2022/06/12 00:30:19;;;;;;;4.80;1.55;;;11.60;99.90;;;;;;5080808;28;20036;-84
2022/06/12 00:32:49;;;;;;;3.72;1.58;;;11.60;99.90;;;;;;5076189;28;20135;-83
2022/06/12 00:35:17;;;;;;;5.25;1.10;;;11.60;99.90;;;;;;5075237;28;20109;-84
2022/06/12 00:37:43;;;;;;;6.65;2.88;;;11.50;99.90;;;;;;5058804;28;20072;-84
2022/06/12 00:40:11;;;;;;;10.07;2.17;;;11.50;99.90;;;;;;5057923;28;20097;-83
2022/06/12 00:42:39;;;;;;;6.53;2.22;;;11.50;99.90;;;;;;5073002;28;20059;-83
2022/06/12 00:45:32;;;;;;;2.80;1.20;;;11.50;99.90;;;;;;5074657;28;20096;-83
2022/06/12 00:48:06;;;;;;;6.18;1.23;;;11.40;99.90;;;;;;5074307;28;20510;-84
2022/06/12 00:50:32;;;;;;;3.72;1.13;;;11.40;99.90;;;;;;5058759;28;20036;-84
2022/06/12 00:52:58;;;;;;;5.57;1.67;;;11.30;99.90;;;;;;5074738;28;20193;-84
2022/06/12 00:55:56;;;;;;;5.53;2.13;;;11.30;99.90;;;;;;5058454;28;20116;-84
2022/06/12 00:58:25;;;;;;;7.10;1.98;;;11.20;99.90;;;;;;5075226;28;20490;-84
2022/06/12 01:00:52;;;;;;;5.93;1.88;;;11.20;99.90;;;;;;5076672;28;20045;-84
2022/06/12 01:03:18;;;;;;;5.60;1.90;;;11.20;99.90;;;;;;5060379;28;20043;-84
2022/06/12 01:08:30;;;;;;;6.22;2.10;;;11.20;99.90;;;;;;5075787;28;20050;-84
2022/06/12 01:10:59;;;;;;;5.55;2.13;;;11.20;99.90;;;;;;5050674;28;20029;-84
2022/06/12 01:13:30;;;;;;;5.75;2.45;;;11.20;99.90;;;;;;5072951;28;20117;-85
2022/06/12 01:16:06;;;;;;;6.97;2.35;;;11.30;99.90;;;;;;5073853;28;20044;-85
2022/06/12 01:18:33;;;;;;;;;;;11.30;99.90;;;;;;5073305;28;20376;-83
2022/06/12 01:21:47;;;;;;;10.13;2.72;;;11.40;99.90;;;;;;5061551;28;19916;-84
2022/06/12 01:24:35;;;;;;;9.77;2.95;;;11.40;99.90;;;;;;5060590;28;20061;-83
2022/06/12 01:27:22;;;;;;;4.57;1.58;;;11.40;99.90;;;;;;5060793;28;20075;-83
2022/06/12 01:30:01;;;;;;;10.38;2.08;;;11.40;99.90;;;;;;5075134;28;20466;-83
2022/06/12 01:32:33;;;;;;;8.55;1.95;;;11.40;99.90;;;;;;5078920;28;20051;-83
2022/06/12 01:35:33;;;;;;;5.18;1.20;;;11.40;99.90;;;;;;5061487;28;20032;-83
2022/06/12 01:38:15;;;;;;;10.68;1.80;;;11.40;99.90;;;;;;5074952;28;20044;-83
2022/06/12 01:41:08;;;;;;;12.50;2.60;;;11.30;99.90;;;;;;5078015;28;20035;-83
2022/06/12 01:43:42;;;;;;;7.05;2.90;;;11.30;99.90;;;;;;5058765;28;20044;-83
2022/06/12 01:46:18;;;;;;;4.40;2.10;;;11.20;99.90;;;;;;5060806;28;20077;-83
2022/06/12 01:49:02;;;;;;;8.93;3.05;;;11.10;99.90;;;;;;5077655;28;20036;-82
2022/06/12 01:51:45;;;;;;;4.45;2.10;;;11.00;99.90;;;;;;5064790;28;20067;-82
2022/06/12 01:54:28;;;;;;;3.65;1.45;;;10.90;99.90;;;;;;5067745;28;20048;-82
2022/06/12 01:57:19;;;;;;;4.07;1.58;;;10.90;99.90;;;;;;5074412;28;20051;-82
2022/06/12 02:00:02;;;;;;;9.48;1.98;;;10.90;99.90;;;;;;5055160;28;20089;-83
2022/06/12 02:02:36;;;;;;;5.60;2.00;;;10.80;99.90;;;;;;5064167;28;20491;-82
2022/06/12 02:05:32;;;;;;;4.72;1.60;;;10.80;99.90;;;;;;5036215;28;20127;-82
2022/06/12 02:08:28;;;;;;;4.03;2.55;;;10.80;99.90;;;;;;5071706;28;20375;-82
2022/06/12 02:13:59;;;;;;;7.05;2.67;;;10.80;99.90;;;;;;5059505;28;20447;-82
2022/06/12 02:16:31;;;;;;;5.45;2.67;;;10.60;99.90;;;;;;5077617;28;20079;-82
2022/06/12 02:19:02;;;;;;;7.18;2.35;;;10.50;99.90;;;;;;5077463;28;20036;-83
2022/06/12 02:21:34;;;;;;;6.72;2.30;;;10.50;99.90;;;;;;5053407;28;20045;-82
2022/06/12 02:24:08;;;;;;;10.38;2.63;;;10.40;99.90;;;;;;5048091;28;20426;-85
2022/06/12 02:26:57;;;;;;;8.80;2.97;;;10.40;99.90;;;;;;5072597;28;20410;-85
2022/06/12 02:29:29;;;;;;;4.97;1.83;;;10.40;99.90;;;;;;5054933;28;20028;-86
2022/06/12 02:31:57;;;;;;;6.75;1.80;;;10.50;99.90;;;;;;5051453;28;20119;-85
2022/06/12 02:34:28;;;;;;;5.32;2.40;;;10.50;99.90;;;;;;5054701;28;20040;-84
2022/06/12 02:37:10;;;;;;;7.20;2.53;;;10.50;99.90;;;;;;5054675;28;20040;-84
2022/06/12 02:39:44;;;;;;;6.20;2.25;;;10.40;99.90;;;;;;5070595;28;20033;-84
2022/06/12 02:42:27;;;;;;;6.88;2.03;;;10.40;99.90;;;;;;5051025;28;20045;-84
2022/06/12 02:45:08;;;;;;;5.55;2.20;;;10.40;99.90;;;;;;5051960;28;20148;-84
2022/06/12 02:47:36;;;;;;;5.03;2.25;;;10.40;99.90;;;;;;5052497;28;20379;-84
2022/06/12 02:50:06;;;;;;;7.85;2.25;;;10.40;99.90;;;;;;5059485;28;20041;-84
2022/06/12 02:52:53;;;;;;;5.53;2.20;;;10.50;99.90;;;;;;5074248;28;20120;-84
2022/06/12 02:55:55;;;;;;;6.03;1.52;;;10.50;99.90;;;;;;5041074;28;20112;-84
2022/06/12 02:58:44;;;;;;;5.75;2.50;;;10.50;99.90;;;;;;5067311;28;20439;-84
2022/06/12 03:01:17;;;;;;;7.05;2.30;;;10.50;99.90;;;;;;5072319;28;20055;-84
2022/06/12 03:04:18;;;;;;;2.90;1.67;;;10.50;99.90;;;;;;5055822;28;20036;-84
2022/06/12 03:06:44;;;;;;;6.70;1.77;;;10.50;99.90;;;;;;5066778;28;20052;-85
2022/06/12 03:09:09;;;;;;;6.57;3.28;;;10.40;99.90;;;;;;5071458;28;20090;-83
2022/06/12 03:11:39;;;;;;;6.75;2.50;;;10.50;99.90;;;;;;5077794;28;20487;-82
2022/06/12 03:14:08;;;;;;;8.15;2.45;;;10.50;99.90;;;;;;5041201;28;20051;-83
2022/06/12 03:16:37;;;;;;;4.82;1.42;;;10.50;99.90;;;;;;5051183;28;20037;-83
2022/06/12 03:19:13;;;;;;;6.45;2.03;;;10.50;99.90;;;;;;5052307;28;20395;-82
2022/06/12 03:21:41;;;;;;;;;;;10.50;99.90;;;;;;5052954;28;20499;-82
2022/06/12 03:24:35;;;;;;;5.57;2.60;;;10.50;99.90;;;;;;5050969;28;19945;-83
2022/06/12 03:27:27;;;;;;;5.07;1.65;;;10.50;99.90;;;;;;5079480;28;20035;-83
2022/06/12 03:30:17;;;;;;;7.60;2.03;;;10.40;99.90;;;;;;5074175;28;20051;-83
2022/06/12 03:33:13;;;;;;;7.05;1.90;;;10.40;99.90;;;;;;5074994;28;20387;-84
2022/06/12 03:35:42;;;;;;;3.55;1.30;;;10.40;99.90;;;;;;5074948;28;20043;-85
2022/06/12 03:38:30;;;;;;;8.65;2.10;;;10.40;99.90;;;;;;5074546;28;20090;-83
2022/06/12 03:41:25;;;;;;;7.82;2.67;;;10.40;99.90;;;;;;5077160;28;20115;-84
2022/06/12 03:44:12;;;;;;;5.77;2.13;;;10.50;99.90;;;;;;5059699;28;20098;-83
2022/06/12 03:46:52;;;;;;;8.25;2.35;;;10.50;99.90;;;;;;5077975;28;20039;-84
2022/06/12 03:49:21;;;;;;;8.02;2.65;;;10.50;99.90;;;;;;5064060;28;20036;-84
2022/06/12 03:52:03;;;;;;;6.63;2.15;;;10.60;99.90;;;;;;5040252;28;20044;-84
2022/06/12 03:54:36;;;;;;;6.55;2.15;;;10.60;99.90;;;;;;5081095;28;20101;-86
2022/06/12 03:57:51;;;;;;;8.45;3.05;;;10.70;99.90;;;;;;5077798;28;20041;-84
2022/06/12 04:00:32;;;;;;;10.52;1.80;;;10.70;99.90;;;;;;5077542;28;20062;-83
2022/06/12 04:03:11;;;;;;;5.28;1.65;;;10.80;99.90;;;;;;5077577;28;20490;-83
2022/06/12 04:05:53;;;;;;;5.45;1.83;;;10.90;99.90;;;;;;5057937;28;20437;-83
2022/06/12 04:08:45;;;;;;;8.07;1.85;;;10.90;99.90;;;;;;5057535;28;20131;-83
2022/06/12 04:11:14;;;;;;;6.47;1.52;;;11.00;99.90;;;;;;5072266;28;20037;-82
2022/06/12 04:13:41;;;;;;;5.35;1.58;;;11.10;99.90;;;;;;5063266;28;20037;-83
2022/06/12 04:16:21;;;;;;;6.05;1.58;;;11.10;99.90;;;;;;5053928;28;20068;-83
2022/06/12 04:18:47;;;;;;;5.47;1.85;;;11.20;99.90;;;;;;5053787;28;20045;-83
2022/06/12 04:21:24;;;;;;;10.95;2.80;;;11.30;99.90;;;;;;5052993;28;20047;-83
2022/06/12 04:24:08;;;;;;;5.82;1.33;;;11.30;99.90;;;;;;5052793;28;20551;-83
2022/06/12 04:26:51;;;;;;;7.60;1.35;;;11.40;99.90;;;;;;5073287;28;20085;-83
2022/06/12 04:29:30;;;;;;;6.50;1.48;;;11.50;99.90;;;;;;5072715;28;20063;-82
2022/06/12 04:31:59;;;;;;;6.07;1.48;;;11.60;99.90;;;;;;5056573;28;20501;-83
2022/06/12 04:34:34;;;;;;;5.93;1.40;;;11.70;99.90;;;;;;5056052;28;20052;-83
2022/06/12 04:37:13;;;;;;;7.13;2.22;;;11.70;99.90;;;;;;5071156;28;20131;-83
2022/06/12 04:39:40;;;;;;;6.95;1.70;;;11.80;99.90;;;;;;5053571;28;20089;-82
2022/06/12 04:42:07;;;;;;;6.47;1.83;;;11.90;99.90;;;;;;5062552;28;20089;-83
2022/06/12 04:44:34;;;;;;;7.88;2.72;;;11.90;99.90;;;;;;5063979;28;20499;-83
2022/06/12 04:47:02;;;;;;;7.45;2.70;;;12.00;99.90;;;;;;5054628;28;20040;-83
2022/06/12 04:49:30;;;;;;;11.20;2.97;;;12.10;99.90;;;;;;5040647;28;20037;-83
2022/06/12 04:51:58;;;;;;;6.20;2.42;;;12.20;99.90;;;;;;5044946;28;20121;-83
2022/06/12 04:54:25;;;;;;;4.97;1.67;;;12.30;99.90;;;;;;5080180;28;20036;-84
2022/06/12 04:56:50;;;;;;;6.43;1.73;;;12.30;99.90;;;;;;5076332;28;20055;-84
2022/06/12 04:59:18;;;;;;;5.95;1.83;;;12.40;99.90;;;;;;5073889;28;20037;-83
2022/06/12 05:01:45;;;;;;;13.80;2.28;;;12.60;99.90;;;;;;5057457;28;20041;-83
2022/06/12 05:04:11;;;;;;;6.93;2.05;;;12.70;99.90;;;;;;5073817;28;20095;-83
2022/06/12 05:06:38;;;;;;;10.60;2.92;;;12.70;99.90;;;;;;5072490;28;20064;-83
2022/06/12 05:09:07;;;;;;;6.75;2.92;;;12.80;99.90;;;;;;5080346;28;20602;-83
2022/06/12 05:11:33;;;;;;;6.72;2.08;;;12.90;99.90;;;;;;5073248;28;20418;-83
2022/06/12 05:13:59;;;;;;;17.85;3.13;;;13.00;99.90;;;;;;5072909;28;20078;-83
2022/06/12 05:16:35;;;;;;;9.70;1.90;;;13.20;99.90;;;;;;5072319;28;20037;-83
2022/06/12 05:19:04;;;;;;;7.03;1.73;;;13.30;99.90;;;;;;5053475;28;20186;-83
2022/06/12 05:21:30;;;;;;;8.07;3.15;;;13.40;99.90;;;;;;5061273;28;20032;-83
2022/06/12 05:23:57;;;;;;;3.72;1.60;;;13.50;99.90;;;;;;5065513;28;20064;-82
2022/06/12 05:26:24;;;;;;;7.82;2.33;;;13.60;99.90;;;;;;5068812;28;20036;-82
2022/06/12 05:28:50;;;;;;;8.65;1.85;;;13.60;99.90;;;;;;5046964;28;20044;-82
2022/06/12 05:31:16;;;;;;;7.55;2.15;;;13.80;99.90;;;;;;5055656;28;20045;-82
2022/06/12 05:33:43;;;;;;;10.23;1.60;;;13.90;99.90;;;;;;5046183;28;20037;-82
2022/06/12 05:36:12;;;;;;;3.58;1.80;;;14.00;99.90;;;;;;5077114;28;20040;-82
2022/06/12 05:38:38;;;;;;;8.52;1.98;;;14.10;99.90;;;;;;5065317;28;20491;-82
2022/06/12 05:41:04;;;;;;;6.18;1.75;;;14.20;99.90;;;;;;5055149;28;20105;-82
2022/06/12 05:43:29;;;;;;;7.15;1.52;;;14.40;99.90;;;;;;5055860;28;20072;-81
2022/06/12 05:45:56;;;;;;;9.68;2.22;;;14.40;99.90;;;;;;5055809;28;20048;-82
2022/06/12 05:48:22;;;;;;;6.53;2.95;;;14.50;99.90;;;;;;5037982;28;20044;-81
2022/06/12 05:50:54;;;;;;;7.15;2.45;;;14.50;99.90;;;;;;5062629;28;20390;-84
2022/06/12 05:53:23;;;;;;;9.57;2.20;;;14.60;99.90;;;;;;5072126;28;20052;-83
2022/06/12 05:55:48;;;;;;;6.07;1.92;;;14.70;99.90;;;;;;5072418;28;20251;-83
2022/06/12 05:58:16;;;;;;;8.70;2.40;;;14.80;99.90;;;;;;5072005;28;20166;-83
2022/06/12 06:00:42;;;;;;;11.30;2.03;;;14.90;99.90;;;;;;5071464;28;20502;-84
2022/06/12 06:03:08;;;;;;;6.75;1.88;;;15.10;99.90;;;;;;5072215;28;20051;-84
2022/06/12 06:05:38;;;;;;;8.02;1.98;;;15.30;99.90;;;;;;5071925;28;20398;-83
2022/06/12 06:08:04;;;;;;;8.10;1.50;;;15.40;99.90;;;;;;5072594;28;20518;-83
2022/06/12 06:10:30;;;;;;;13.43;2.67;;;15.50;99.90;;;;;;5072832;28;20029;-83
2022/06/12 06:12:56;;;;;;;8.27;1.92;;;15.50;99.90;;;;;;5072347;28;20544;-83
2022/06/12 06:15:22;;;;;;;8.38;2.53;;;15.60;99.90;;;;;;5071588;28;20044;-83
2022/06/12 06:17:49;;;;;;;16.38;2.38;;;15.60;99.90;;;;;;5078264;28;20127;-84
2022/06/12 06:20:19;;;;;;;6.72;2.25;;;15.70;99.90;;;;;;5079748;28;20048;-83
2022/06/12 06:22:44;;;;;;;10.70;1.92;;;15.80;99.90;;;;;;5084924;28;20096;-83
2022/06/12 06:25:10;;;;;;;10.85;2.25;;;16.00;99.90;;;;;;5054440;28;20100;-84
2022/06/12 06:27:36;;;;;;;7.45;2.42;;;16.30;99.90;;;;;;5067063;28;20036;-83
2022/06/12 06:30:03;;;;;;;10.20;2.47;;;16.50;99.90;;;;;;5067336;28;20487;-84
2022/06/12 06:32:28;;;;;;;14.48;3.35;;;16.60;99.90;;;;;;5067515;28;20138;-84
2022/06/12 06:34:54;;;;;;;8.85;2.63;;;16.90;99.90;;;;;;5078379;28;20059;-85
2022/06/12 06:37:19;;;;;;;7.55;2.17;;;16.90;99.90;;;;;;5071337;28;20032;-85
2022/06/12 06:39:45;;;;;;;9.18;1.85;;;16.90;99.90;;;;;;5073548;28;20040;-86
2022/06/12 06:42:11;;;;;;;12.25;2.72;;;16.90;99.90;;;;;;5056300;28;20051;-85
2022/06/12 06:47:21;;;;;;;14.23;3.10;;;16.80;99.90;;;;;;5073260;28;20487;-85
2022/06/12 06:49:47;;;;;;;12.82;3.10;;;17.00;99.90;;;;;;5073624;28;20033;-86
2022/06/12 06:52:13;;;;;;;7.80;2.85;;;17.40;99.90;;;;;;5074692;28;20031;-86
2022/06/12 06:54:39;;;;;;;9.15;1.90;;;17.70;99.90;;;;;;5057808;28;20037;-85
2022/06/12 06:57:07;;;;;;;9.23;2.95;;;18.00;99.90;;;;;;5072733;28;20101;-86
2022/06/12 06:59:33;;;;;;;9.95;2.20;;;18.20;99.90;;;;;;5077686;28;20046;-86
2022/06/12 07:01:58;;;;;;;21.23;3.65;;;18.40;99.90;;;;;;5064972;28;20076;-86
2022/06/12 07:04:24;;;;;;;16.23;3.47;;;18.60;99.90;;;;;;5056631;28;20048;-86
2022/06/12 07:06:50;;;;;;;12.85;2.28;;;18.90;99.90;;;;;;5080021;28;20028;-86
2022/06/12 07:09:15;;;;;;;11.48;3.10;;;19.10;99.90;;;;;;5073509;28;20043;-86
2022/06/12 07:11:41;;;;;;;5.97;2.60;;;19.20;99.90;;;;;;5058563;28;20119;-86
2022/06/12 07:14:07;;;;;;;10.95;3.47;;;19.50;99.90;;;;;;5074343;28;20108;-86
2022/06/12 07:16:34;;;;;;;8.30;2.90;;;19.70;99.90;;;;;;5076015;28;20039;-86
2022/06/12 07:19:00;;;;;;;10.85;2.63;;;19.90;99.90;;;;;;5075793;28;20053;-86
2022/06/12 07:21:25;;;;;;;9.73;3.30;;;20.10;99.90;;;;;;5075755;28;20040;-86
2022/06/12 07:23:51;;;;;;;11.27;3.67;;;20.20;99.90;;;;;;5074959;28;20090;-86
2022/06/12 07:26:25;;;;;;;12.27;2.75;;;20.30;99.90;;;;;;5059526;28;20013;-86
2022/06/12 07:28:51;;;;;;;12.00;2.53;;;20.40;99.90;;;;;;5077690;28;20043;-86
2022/06/12 07:31:18;;;;;;;10.45;2.88;;;20.50;99.90;;;;;;5058657;28;20406;-85
2022/06/12 07:33:44;;;;;;;9.95;2.30;;;20.70;99.90;;;;;;5059271;28;20466;-85
2022/06/12 07:36:12;;;;;;;9.65;2.92;;;20.80;99.90;;;;;;5075503;28;20052;-85
2022/06/12 07:38:39;;;;;;;7.93;2.38;;;20.90;99.90;;;;;;5079847;28;20067;-84
2022/06/12 07:41:09;;;;;;;10.25;2.50;;;20.80;99.90;;;;;;5062962;28;20128;-85
2022/06/12 07:43:35;;;;;;;7.10;2.08;;;20.80;99.90;;;;;;5069550;28;20033;-84
2022/06/12 07:46:03;;;;;;;10.30;2.65;;;20.90;99.90;;;;;;5046820;28;20529;-86
2022/06/12 07:48:31;;;;;;;9.73;2.05;;;21.00;99.90;;;;;;5056278;28;20048;-85
2022/06/12 07:50:59;;;;;;;10.60;2.30;;;21.20;99.90;;;;;;5056699;28;20044;-85
2022/06/12 07:53:25;;;;;;;9.18;2.47;;;21.50;99.90;;;;;;5055991;28;20534;-84
2022/06/12 07:55:52;;;;;;;11.02;2.05;;;21.50;99.90;;;;;;5083909;28;20044;-84
2022/06/12 07:58:20;;;;;;;10.27;3.25;;;21.70;99.90;;;;;;5076336;28;20036;-84
2022/06/12 08:00:47;;;;;;;7.13;1.77;;;21.80;99.90;;;;;;5082262;28;20048;-84
2022/06/12 08:03:13;;;;;;;7.53;1.55;;;21.90;99.90;;;;;;5065571;28;20087;-83
2022/06/12 08:05:38;;;;;;;7.97;2.00;;;21.90;99.90;;;;;;5061346;28;20040;-84
2022/06/12 08:08:05;;;;;;;10.10;2.17;;;22.00;99.90;;;;;;5079644;28;20059;-83
2022/06/12 08:10:30;;;;;;;9.32;2.33;;;22.20;99.90;;;;;;5064529;28;20033;-83
2022/06/12 08:12:57;;;;;;;11.82;2.20;;;22.50;99.90;;;;;;5073147;28;20040;-83
2022/06/12 08:15:27;;;;;;;8.60;2.15;;;22.60;99.90;;;;;;5064399;28;20053;-81
2022/06/12 08:17:53;;;;;;;10.35;1.48;;;22.40;99.90;;;;;;5060575;28;20074;-83
2022/06/12 08:20:26;;;;;;;9.90;2.28;;;22.40;99.90;;;;;;5079200;28;20048;-82
2022/06/12 08:23:26;;;;;;;10.80;2.83;;;22.50;99.90;;;;;;5075429;28;20510;-82
2022/06/12 08:25:56;;;;;;;11.30;1.98;;;22.70;99.90;;;;;;5085720;28;20097;-82
2022/06/12 08:28:23;;;;;;;14.48;3.58;;;22.90;99.90;;;;;;5083416;28;20032;-82
2022/06/12 08:30:48;;;;;;;198.02;133.43;;;23.10;99.90;;;;;;5066199;28;20040;-81
2022/06/12 08:33:14;;;;;;;55.10;33.13;;;23.20;99.40;;;;;;5064275;28;20104;-81
2022/06/12 08:35:40;;;;;;;128.20;92.65;;;23.40;98.80;;;;;;5041952;28;20045;-80
2022/06/12 08:38:06;;;;;;;15.38;8.63;;;23.60;95.20;;;;;;5058481;28;20056;-80
2022/06/12 08:40:37;;;;;;;14.82;8.30;;;23.80;95.00;;;;;;5061901;28;20037;-80
2022/06/12 08:43:15;;;;;;;6.03;1.80;;;23.90;95.90;;;;;;5077869;28;20360;-81
2022/06/12 08:45:45;;;;;;;5.72;1.63;;;24.00;94.70;;;;;;5079092;28;20042;-81
2022/06/12 08:48:48;;;;;;;7.20;1.52;;;23.80;94.10;;;;;;5081345;28;20127;-80
2022/06/12 08:51:18;;;;;;;8.57;2.95;;;23.70;93.30;;;;;;5081467;28;20036;-80
2022/06/12 08:54:10;;;;;;;5.53;1.30;;;23.60;95.00;;;;;;5061357;28;20040;-81
2022/06/12 08:56:43;;;;;;;5.63;1.25;;;23.80;94.60;;;;;;5080968;28;20048;-81
2022/06/12 08:59:27;;;;;;;5.50;1.30;;;23.90;95.20;;;;;;5076323;28;20049;-80
2022/06/12 09:01:54;;;;;;;7.88;1.48;;;24.00;93.00;;;;;;5080306;28;20093;-82
2022/06/12 09:04:23;;;;;;;4.95;1.83;;;24.20;90.90;;;;;;5074792;28;20040;-81
2022/06/12 09:07:19;;;;;;;7.82;1.13;;;24.50;91.30;;;;;;5073328;28;20123;-82
2022/06/12 09:09:52;;;;;;;5.55;1.98;;;24.60;84.90;;;;;;5075368;28;20048;-80
2022/06/12 09:12:28;;;;;;;7.47;1.95;;;24.60;90.10;;;;;;5076925;28;20032;-82
2022/06/12 09:15:14;;;;;;;9.68;1.73;;;24.80;90.70;;;;;;5061893;28;20051;-80
2022/06/12 09:18:01;;;;;;;6.97;1.50;;;25.20;88.40;;;;;;5081351;28;20119;-81
2022/06/12 09:20:55;;;;;;;5.20;1.27;;;25.80;88.80;;;;;;5063780;28;20027;-82
2022/06/12 09:23:20;;;;;;;5.53;1.02;;;26.30;83.00;;;;;;5067321;28;20043;-82
2022/06/12 09:26:07;;;;;;;6.53;1.17;;;26.30;80.00;;;;;;5080869;28;20058;-81
2022/06/12 09:28:47;;;;;;;7.18;1.85;;;26.00;76.90;;;;;;5075574;28;20104;-83
2022/06/12 09:31:28;;;;;;;5.82;1.35;;;25.50;76.20;;;;;;5078179;28;20067;-80
2022/06/12 09:34:11;;;;;;;9.02;1.25;;;25.00;72.60;;;;;;5078386;28;20036;-81
2022/06/12 09:36:54;;;;;;;31.33;25.33;;;24.50;77.30;;;;;;5057449;28;20047;-81
2022/06/12 09:39:55;;;;;;;8.35;1.65;;;24.10;80.00;;;;;;5072852;28;20082;-81
2022/06/12 09:42:27;;;;;;;11.52;4.03;;;24.30;81.00;;;;;;5074070;28;20055;-81
2022/06/12 09:45:07;;;;;;;112.35;95.53;;;24.60;79.90;;;;;;5076965;28;20064;-81
2022/06/12 09:47:38;;;;;;;21.88;13.60;;;25.00;78.30;;;;;;5059030;28;20548;-82
2022/06/12 09:50:22;;;;;;;6.10;1.52;;;25.30;79.50;;;;;;5078193;28;20040;-81
2022/06/12 09:53:09;;;;;;;60.90;54.08;;;25.40;76.30;;;;;;5076990;28;20052;-81
2022/06/12 09:55:46;;;;;;;6.70;1.85;;;24.80;74.30;;;;;;5090932;28;20052;-81
2022/06/12 09:58:26;;;;;;;10.02;2.65;;;24.30;75.50;;;;;;5074128;28;20047;-81
2022/06/12 10:01:04;;;;;;;5.35;1.52;;;24.30;78.20;;;;;;5074564;28;20045;-81
2022/06/12 10:03:39;;;;;;;8.75;1.75;;;24.20;79.50;;;;;;5075292;28;20043;-80
2022/06/12 10:06:28;;;;;;;;;;;24.00;77.20;;;;;;5072019;28;20032;-81
2022/06/12 10:09:06;;;;;;;6.53;1.33;;;23.60;77.60;;;;;;5077913;28;20017;-80
2022/06/12 10:11:37;;;;;;;4.35;1.25;;;23.10;77.80;;;;;;5072658;28;20524;-80
2022/06/12 10:14:18;;;;;;;3.78;0.80;;;22.70;78.20;;;;;;5079294;28;20223;-80
2022/06/12 10:16:53;;;;;;;7.28;1.35;;;22.50;79.80;;;;;;5080560;28;21436;-82
2022/06/12 10:19:30;;;;;;;;;;;22.80;81.90;;;;;;5073660;28;20540;-82
2022/06/12 10:22:00;;;;;;;5.68;0.90;;;23.20;81.90;;;;;;5072881;28;19917;-81
2022/06/12 10:24:27;;;;;;;4.15;0.77;;;23.30;79.90;;;;;;5069595;28;20127;-82
2022/06/12 10:27:06;;;;;;;4.90;0.50;;;23.10;78.60;;;;;;5075169;28;20087;-81
2022/06/12 10:29:52;;;;;;;6.28;0.95;;;22.90;77.20;;;;;;5072334;28;20044;-82
2022/06/12 10:32:21;;;;;;;5.93;1.00;;;23.00;77.00;;;;;;5070509;28;20045;-81
2022/06/12 10:34:47;;;;;;;2.67;0.60;;;23.40;77.40;;;;;;5074208;28;20570;-82
2022/06/12 10:37:17;;;;;;;5.07;1.02;;;23.70;77.00;;;;;;5073776;28;20072;-81
2022/06/12 10:39:43;;;;;;;4.38;0.80;;;23.50;74.30;;;;;;5085656;28;20097;-81
2022/06/12 10:42:40;;;;;;;5.57;1.20;;;23.10;75.60;;;;;;5078280;28;20032;-82
2022/06/12 10:45:25;;;;;;;5.28;0.50;;;22.60;74.30;;;;;;5082165;28;20040;-81
2022/06/12 10:47:53;;;;;;;2.67;0.77;;;22.00;74.90;;;;;;5078362;28;20109;-81
2022/06/12 10:50:49;;;;;;;4.78;0.90;;;21.80;75.50;;;;;;5075637;28;20029;-81
2022/06/12 10:53:17;;;;;;;5.32;0.95;;;22.40;76.20;;;;;;5061246;28;20446;-82
2022/06/12 10:55:49;;;;;;;4.82;1.10;;;22.80;75.50;;;;;;5059280;28;20044;-81
2022/06/12 10:58:39;;;;;;;2.65;0.52;;;22.80;72.90;;;;;;5077608;28;20106;-81
2022/06/12 11:01:16;;;;;;;5.38;0.73;;;23.00;73.30;;;;;;5059300;28;20051;-82
2022/06/12 11:04:08;;;;;;;4.50;0.77;;;23.30;74.60;;;;;;5073703;28;20104;-82
2022/06/12 11:06:58;;;;;;;3.60;0.50;;;23.70;71.10;;;;;;5076679;28;20479;-82
2022/06/12 11:09:34;;;;;;;2.95;0.77;;;23.90;68.90;;;;;;5080355;28;20070;-81
2022/06/12 11:12:13;;;;;;;2.25;0.40;;;24.20;69.00;;;;;;5070972;28;20094;-83
2022/06/12 11:14:45;;;;;;;2.50;0.40;;;24.40;64.10;;;;;;5080749;28;20171;-81
2022/06/12 11:17:22;;;;;;;3.22;0.73;;;24.40;63.70;;;;;;5080478;28;20044;-82
2022/06/12 11:20:22;;;;;;;2.17;0.57;;;24.10;60.90;;;;;;5075577;28;20051;-82
2022/06/12 11:23:15;;;;;;;2.60;0.45;;;23.40;62.00;;;;;;5077020;28;20052;-82
2022/06/12 11:26:07;;;;;;;2.80;0.47;;;23.10;64.10;;;;;;5077912;28;20725;-80
2022/06/12 11:28:41;;;;;;;3.67;0.43;;;23.30;64.00;;;;;;5061086;28;20048;-80
2022/06/12 11:31:12;;;;;;;3.33;0.38;;;23.60;62.00;;;;;;5080223;28;20496;-80
2022/06/12 11:34:02;;;;;;;2.92;1.10;;;23.70;60.70;;;;;;5075319;28;20037;-80
2022/06/12 11:36:55;;;;;;;3.65;0.30;;;23.40;60.80;;;;;;5078383;28;20031;-79
2022/06/12 11:39:37;;;;;;;3.40;1.05;;;23.40;64.40;;;;;;5074819;28;20096;-80
2022/06/12 11:42:41;;;;;;;2.95;0.47;;;23.90;64.10;;;;;;5077985;28;20445;-82
2022/06/12 11:45:18;;;;;;;1.58;0.32;;;24.40;60.10;;;;;;5055718;28;20058;-81
2022/06/12 11:47:51;;;;;;;3.85;0.47;;;24.60;60.20;;;;;;5079776;28;20521;-83
2022/06/12 11:50:41;;;;;;;4.07;0.55;;;24.50;58.10;;;;;;5066803;28;20047;-81
2022/06/12 11:53:21;;;;;;;0.73;0.25;;;24.10;58.10;;;;;;5077694;28;20032;-80
2022/06/12 11:55:56;;;;;;;1.73;0.30;;;23.80;59.60;;;;;;5079107;28;20371;-81
2022/06/12 11:58:51;;;;;;;2.63;0.43;;;24.10;61.70;;;;;;5077398;28;20092;-80
2022/06/12 12:01:40;;;;;;;2.10;0.90;;;24.40;57.10;;;;;;5078086;28;20275;-82
2022/06/12 12:04:11;;;;;;;2.35;0.30;;;24.60;58.80;;;;;;5075324;28;20379;-80
2022/06/12 12:07:06;;;;;;;2.95;0.82;;;24.60;57.10;;;;;;5082624;28;20041;-80
2022/06/12 12:10:07;;;;;;;1.85;0.20;;;24.90;54.90;;;;;;5078338;28;20514;-83
2022/06/12 12:12:43;;;;;;;2.00;0.47;;;24.90;53.60;;;;;;5076520;28;20033;-81
2022/06/12 12:15:24;;;;;;;1.27;0.25;;;25.00;53.60;;;;;;5073741;28;20522;-80
2022/06/12 12:17:52;;;;;;;2.55;0.20;;;25.20;51.60;;;;;;5075989;28;20107;-81
2022/06/12 12:20:32;;;;;;;1.80;0.43;;;25.40;53.20;;;;;;5077222;28;20055;-81
2022/06/12 12:23:04;;;;;;;1.65;0.30;;;25.90;51.80;;;;;;5072663;28;20040;-80
2022/06/12 12:25:52;;;;;;;2.38;0.22;;;25.80;50.70;;;;;;5063117;28;20058;-79
2022/06/12 12:28:37;;;;;;;4.00;0.30;;;25.80;52.70;;;;;;5077293;28;20524;-80
2022/06/12 12:31:09;;;;;;;2.50;0.32;;;25.90;51.90;;;;;;5062240;28;20075;-82
2022/06/12 12:33:38;;;;;;;1.52;0.40;;;25.80;51.90;;;;;;5072962;28;20088;-80
2022/06/12 12:41:49;;;;;;;2.53;0.40;;;25.80;50.40;;;;;;5077516;28;20045;-82
2022/06/12 12:44:33;;;;;;;2.33;0.60;;;25.60;51.20;;;;;;5076707;28;20663;-83
2022/06/12 12:46:59;;;;;;;3.88;0.30;;;25.70;52.70;;;;;;5076731;28;20139;-82
2022/06/12 12:49:34;;;;;;;1.88;0.30;;;25.70;51.70;;;;;;5074770;28;20371;-82
2022/06/12 12:52:09;;;;;;;1.20;0.40;;;25.60;50.80;;;;;;5073794;28;20368;-81
2022/06/12 12:55:28;;;;;;;2.78;0.47;;;25.50;52.10;;;;;;5069040;28;20037;-81
2022/06/12 12:59:40;;;;;;;2.45;0.47;;;25.00;51.50;;;;;;5065835;28;20499;-81
2022/06/12 13:03:18;;;;;;;2.28;0.52;;;24.20;51.90;;;;;;5072821;28;20036;-81
2022/06/12 13:06:51;;;;;;;2.97;0.30;;;24.40;56.60;;;;;;5080706;28;20055;-82
2022/06/12 13:28:30;;;;;;;3.72;0.70;;;22.90;60.40;;;;;;5042844;28;20064;-81
2022/06/12 13:38:57;;;;;;;3.60;1.02;;;24.00;61.30;;;;;;4918212;29;20055;-79
2022/06/12 13:53:49;;;;;;;3.50;0.40;;;22.90;61.50;;;;;;4916821;29;20542;-79
2022/06/12 13:56:59;;;;;;;3.35;0.40;;;22.70;62.10;;;;;;4899880;29;20111;-80
2022/06/12 13:59:49;;;;;;;3.60;0.60;;;22.90;61.80;;;;;;4956530;28;20045;-79
2022/06/12 14:02:17;;;;;;;3.05;0.57;;;23.00;61.60;;;;;;4943789;28;20042;-80
2022/06/12 14:04:53;;;;;;;5.60;0.88;;;23.40;61.10;;;;;;5068498;28;20402;-79
2022/06/12 14:07:20;;;;;;;3.35;0.60;;;24.10;59.90;;;;;;5073861;28;20048;-80
2022/06/12 14:09:49;;;;;;;4.43;0.70;;;24.20;59.10;;;;;;5051809;28;20040;-80
2022/06/12 14:12:15;;;;;;;4.57;0.63;;;24.20;58.60;;;;;;5068676;28;20036;-81
2022/06/12 14:14:43;;;;;;;5.95;1.35;;;24.20;58.60;;;;;;5074820;28;20047;-80
2022/06/12 14:17:23;;;;;;;4.57;0.73;;;24.10;59.30;;;;;;5070476;28;20391;-81
2022/06/12 14:20:18;;;;;;;2.13;0.68;;;23.90;57.50;;;;;;5072770;28;20096;-79
2022/06/12 14:22:47;;;;;;;3.50;0.98;;;23.90;58.60;;;;;;5070400;28;20054;-79